Lummen, Belgium
Current Conditions -  °F | °C
As of 8:25 AM on Tuesday 27 Jan 2015 (Local Time) from EBDT Reporting Station
Broken Clouds Broken Clouds  
Wind Chill: 31°   Ceiling: 24000
Heat Index: 37°   Visibility: 6mi
Dew Point: 36°   Wind: 8mph
Humidity: 93%   Direction: 260°W
Pressure: 30.24"   Gusts: NA
Location:  50.99°N, 5.19°E
Report Text: EBDT 270725Z 26007KT 9000 FEW023 SCT035 BKN240 03/02 Q1024 BLACKBLU BLU TEMPO WHT
Loading
Personal Weather Stations






























Interactive Weather Map New forecast layout! Learn more

10-Day Weather Forecast

Advertisements
Track Severe Weather on mobile